createdAt,value
2018-08-30T00:00:17.420Z,34.65
2018-08-30T00:01:17.377Z,34.55
2018-08-30T00:02:17.333Z,34.75
2018-08-30T00:03:17.291Z,34.75
2018-08-30T00:04:17.245Z,34.94
2018-08-30T00:05:17.208Z,34.65
2018-08-30T00:06:17.158Z,34.65
2018-08-30T00:07:17.115Z,34.65
2018-08-30T00:08:17.070Z,34.55
2018-08-30T00:09:17.026Z,34.75
2018-08-30T00:10:16.983Z,34.75
2018-08-30T00:11:16.941Z,34.65
2018-08-30T00:12:16.894Z,34.75
2018-08-30T00:13:16.851Z,34.94
2018-08-30T00:14:16.808Z,34.45
2018-08-30T00:15:16.764Z,34.84
2018-08-30T00:16:16.719Z,34.65
2018-08-30T00:17:16.676Z,34.84
2018-08-30T00:18:16.632Z,34.84
2018-08-30T00:19:16.589Z,34.75
2018-08-30T00:20:16.544Z,34.84
2018-08-30T00:21:16.503Z,34.65
2018-08-30T00:22:16.456Z,34.84
2018-08-30T00:23:16.413Z,34.84
2018-08-30T00:24:16.368Z,34.84
2018-08-30T00:25:16.325Z,34.94
2018-08-30T00:26:16.286Z,34.84
2018-08-30T00:27:16.238Z,34.77
2018-08-30T00:28:16.194Z,34.84
2018-08-30T00:29:16.149Z,34.84
2018-08-30T00:30:16.106Z,34.84
2018-08-30T00:31:16.062Z,34.84
2018-08-30T00:32:16.020Z,34.75
2018-08-30T00:33:15.974Z,34.75
2018-08-30T00:34:15.930Z,34.84
2018-08-30T00:35:15.887Z,34.75
2018-08-30T00:36:15.842Z,34.75
2018-08-30T00:37:15.799Z,34.84
2018-08-30T00:38:15.754Z,34.84
2018-08-30T00:39:15.711Z,34.75
2018-08-30T00:40:15.666Z,34.84
2018-08-30T00:41:15.657Z,34.75
2018-08-30T00:42:15.579Z,34.75
2018-08-30T00:43:15.535Z,34.84
2018-08-30T00:46:15.403Z,34.94
2018-08-30T00:47:15.359Z,34.94
2018-08-30T00:50:15.228Z,34.94
2018-08-30T00:51:15.184Z,34.84
2018-08-30T00:52:15.456Z,34.94
2018-08-30T00:53:15.096Z,34.75
2018-08-30T00:54:15.053Z,34.94
2018-08-30T00:55:15.008Z,34.84
2018-08-30T00:56:14.964Z,34.94
2018-08-30T00:57:14.922Z,34.84
2018-08-30T00:58:14.877Z,34.75
2018-08-30T00:59:14.833Z,34.94
2018-08-30T01:00:14.789Z,34.75
2018-08-30T01:01:14.744Z,34.94
2018-08-30T01:02:14.701Z,34.75
2018-08-30T01:03:14.657Z,34.75
2018-08-30T01:04:14.612Z,34.75
2018-08-30T01:05:14.568Z,34.84
2018-08-30T01:06:14.525Z,34.84
2018-08-30T01:07:14.483Z,34.94
2018-08-30T01:08:14.436Z,34.94
2018-08-30T01:09:14.393Z,34.84
2018-08-30T01:10:14.350Z,34.94
2018-08-30T01:11:14.306Z,34.84
2018-08-30T01:12:14.261Z,34.84
2018-08-30T01:13:14.217Z,34.94
2018-08-30T01:14:14.182Z,34.84
2018-08-30T01:15:14.130Z,34.94
2018-08-30T01:16:14.085Z,34.84
2018-08-30T01:17:14.042Z,34.75
2018-08-30T01:18:14.001Z,34.84
2018-08-30T01:19:13.954Z,35.04
2018-08-30T01:20:13.917Z,34.94
2018-08-30T01:21:13.866Z,34.75
2018-08-30T01:22:13.822Z,34.94
2018-08-30T01:23:13.779Z,34.84
2018-08-30T01:24:13.734Z,34.84
2018-08-30T01:25:13.690Z,34.94
2018-08-30T01:26:13.646Z,34.84
2018-08-30T01:27:13.620Z,34.84
2018-08-30T01:28:13.560Z,34.84
2018-08-30T01:29:13.514Z,34.84
2018-08-30T01:30:13.472Z,35.04
2018-08-30T01:31:13.436Z,34.84
2018-08-30T01:32:13.382Z,35.04
2018-08-30T01:33:13.338Z,34.94
2018-08-30T01:34:13.295Z,34.84
2018-08-30T01:35:13.251Z,34.84
2018-08-30T01:36:13.206Z,34.84
2018-08-30T01:37:13.163Z,34.94
2018-08-30T01:38:13.119Z,35.04
2018-08-30T01:39:13.075Z,34.83
2018-08-30T01:40:13.034Z,35.04
2018-08-30T01:41:12.986Z,34.94
2018-08-30T01:42:12.943Z,34.94
2018-08-30T01:43:12.899Z,34.94
2018-08-30T01:44:12.854Z,34.94
2018-08-30T01:45:12.811Z,34.94
2018-08-30T01:46:12.767Z,34.94
2018-08-30T01:47:12.726Z,34.75
2018-08-30T01:48:12.678Z,35.04
2018-08-30T01:49:12.640Z,34.75
2018-08-30T01:50:12.591Z,34.84
2018-08-30T01:51:12.547Z,34.94
2018-08-30T01:52:12.502Z,35.04
2018-08-30T01:53:12.459Z,35.04
2018-08-30T01:54:12.414Z,34.94
2018-08-30T01:55:12.371Z,34.84
2018-08-30T01:56:12.326Z,34.84
2018-08-30T01:57:12.283Z,35.04
2018-08-30T01:58:12.238Z,34.84
2018-08-30T01:59:12.195Z,34.84
2018-08-30T02:00:12.150Z,34.94
2018-08-30T02:01:12.107Z,34.73
2018-08-30T02:02:12.063Z,35.12
2018-08-30T02:03:12.019Z,34.73
2018-08-30T02:04:11.975Z,35.02
2018-08-30T02:05:11.930Z,35.02
2018-08-30T02:06:11.887Z,35.04
2018-08-30T02:07:11.843Z,34.92
2018-08-30T02:08:11.899Z,35.02
2018-08-30T02:09:11.754Z,34.92
2018-08-30T02:10:11.710Z,34.94
2018-08-30T02:11:11.666Z,35.21
2018-08-30T02:12:11.623Z,34.92
2018-08-30T02:13:11.578Z,34.83
2018-08-30T02:14:11.534Z,34.94
2018-08-30T02:15:11.492Z,34.94
2018-08-30T02:16:11.446Z,35.13
2018-08-30T02:17:11.402Z,34.92
2018-08-30T02:18:11.361Z,35.04
2018-08-30T02:19:11.314Z,35.04
2018-08-30T02:20:11.270Z,34.94
2018-08-30T02:21:11.225Z,35.02
2018-08-30T02:22:11.188Z,35.02
2018-08-30T02:23:11.139Z,35.04
2018-08-30T02:24:11.093Z,34.94
2018-08-30T02:25:11.050Z,34.83
2018-08-30T02:26:11.006Z,34.94
2018-08-30T02:27:10.962Z,34.92
2018-08-30T02:28:10.917Z,34.92
2018-08-30T02:29:10.873Z,34.92
2018-08-30T02:30:10.830Z,35.02
2018-08-30T02:31:10.789Z,34.92
2018-08-30T02:32:10.741Z,34.92
2018-08-30T02:33:10.698Z,34.92
2018-08-30T02:34:10.654Z,35.21
2018-08-30T02:35:10.612Z,35.21
2018-08-30T02:36:10.565Z,34.92
2018-08-30T02:37:10.521Z,35.12
2018-08-30T02:38:10.477Z,35.21
2018-08-30T02:39:10.433Z,34.92
2018-08-30T02:40:10.388Z,35.12
2018-08-30T02:41:10.344Z,35.21
2018-08-30T02:42:10.302Z,35.04
2018-08-30T02:43:10.257Z,35.21
2018-08-30T02:44:10.213Z,35.13
2018-08-30T02:45:10.168Z,35.12
2018-08-30T02:46:10.125Z,35.23
2018-08-30T02:47:10.081Z,35.21
2018-08-30T02:48:10.038Z,35.04
2018-08-30T02:49:10.070Z,35.31
2018-08-30T02:50:09.949Z,35.12
2018-08-30T02:51:09.905Z,35.23
2018-08-30T02:52:09.860Z,35.21
2018-08-30T02:53:09.816Z,35.31
2018-08-30T02:54:09.772Z,35.31
2018-08-30T02:55:09.735Z,35.21
2018-08-30T02:56:09.683Z,35.31
2018-08-30T02:57:09.639Z,35.21
2018-08-30T02:58:09.595Z,35.31
2018-08-30T02:59:09.552Z,35.21
2018-08-30T03:00:09.507Z,35.21
2018-08-30T03:01:09.463Z,35.21
2018-08-30T03:02:09.419Z,35.31
2018-08-30T03:03:09.375Z,35.21
2018-08-30T03:04:09.331Z,35.31
2018-08-30T03:05:09.287Z,35.33
2018-08-30T03:06:09.243Z,35.21
2018-08-30T03:07:09.199Z,35.21
2018-08-30T03:08:09.154Z,35.12
2018-08-30T03:09:09.110Z,35.31
2018-08-30T03:10:09.067Z,35.12
2018-08-30T03:11:09.023Z,35.12
2018-08-30T03:12:08.977Z,35.21
2018-08-30T03:13:08.934Z,35.12
2018-08-30T03:14:08.890Z,35.21
2018-08-30T03:15:08.848Z,35.21
2018-08-30T03:16:08.801Z,35.12
2018-08-30T03:17:08.757Z,35.12
2018-08-30T03:18:08.713Z,35.12
2018-08-30T03:19:08.671Z,35.21
2018-08-30T03:20:08.625Z,35.02
2018-08-30T03:21:08.580Z,35.12
2018-08-30T03:22:08.537Z,35.02
2018-08-30T03:23:08.492Z,35.02
2018-08-30T03:24:08.448Z,35.12
2018-08-30T03:25:08.403Z,35.02
2018-08-30T03:26:08.360Z,35.12
2018-08-30T03:27:08.316Z,35.02
2018-08-30T03:28:08.270Z,35.02
2018-08-30T03:29:08.227Z,35.12
2018-08-30T03:30:08.318Z,34.92
2018-08-30T03:31:08.272Z,35.41
2018-08-30T03:32:08.095Z,34.92
2018-08-30T03:33:08.050Z,35.41
2018-08-30T03:34:08.006Z,35.41
2018-08-30T03:35:07.962Z,35.41
2018-08-30T03:36:07.917Z,35.41
2018-08-30T03:37:07.874Z,35.41
2018-08-30T03:38:07.830Z,35.70
2018-08-30T03:39:07.786Z,35.70
2018-08-30T03:40:07.741Z,35.60
2018-08-30T03:41:07.697Z,35.70
2018-08-30T03:42:07.653Z,35.60
2018-08-30T03:43:07.609Z,35.60
2018-08-30T03:44:07.564Z,35.60
2018-08-30T03:45:07.521Z,35.60
2018-08-30T03:46:07.476Z,35.70
2018-08-30T03:47:07.503Z,35.70
2018-08-30T03:48:07.387Z,35.89
2018-08-30T03:49:07.344Z,35.60
2018-08-30T03:50:07.300Z,35.89
2018-08-30T03:51:07.255Z,35.89
2018-08-30T03:52:07.213Z,35.80
2018-08-30T03:53:07.167Z,35.89
2018-08-30T03:54:07.127Z,35.70
2018-08-30T03:55:07.088Z,35.99
2018-08-30T03:56:07.035Z,35.89
2018-08-30T03:57:06.995Z,35.89
2018-08-30T03:58:06.947Z,35.99
2018-08-30T03:59:06.903Z,36.18
2018-08-30T04:00:06.859Z,36.18
2018-08-30T04:01:06.814Z,36.08
2018-08-30T04:02:06.770Z,36.08
2018-08-30T04:03:06.727Z,36.08
2018-08-30T04:04:06.725Z,36.28
2018-08-30T04:05:06.638Z,35.80
2018-08-30T04:06:06.593Z,35.99
2018-08-30T04:07:06.549Z,35.99
2018-08-30T04:08:06.506Z,35.89
2018-08-30T04:09:06.461Z,36.38
2018-08-30T04:10:06.417Z,36.28
2018-08-30T04:11:06.373Z,36.28
2018-08-30T04:12:06.329Z,36.28
2018-08-30T04:13:06.284Z,35.89
2018-08-30T04:14:06.240Z,36.28
2018-08-30T04:15:06.196Z,36.18
2018-08-30T04:16:06.152Z,36.18
2018-08-30T04:17:06.108Z,36.18
2018-08-30T04:18:06.064Z,36.18
2018-08-30T04:19:06.020Z,36.28
2018-08-30T04:20:05.974Z,36.18
2018-08-30T04:21:05.931Z,36.18
2018-08-30T04:22:05.947Z,36.18
2018-08-30T04:23:05.843Z,36.08
2018-08-30T04:24:05.798Z,36.08
2018-08-30T04:25:05.754Z,36.08
2018-08-30T04:26:05.710Z,36.28
2018-08-30T04:27:05.707Z,36.28
2018-08-30T04:28:05.621Z,36.28
2018-08-30T04:29:05.581Z,36.18
2018-08-30T04:31:05.489Z,36.28
2018-08-30T04:32:05.449Z,36.47
2018-08-30T04:33:05.401Z,36.38
2018-08-30T04:34:05.363Z,36.28
2018-08-30T04:35:05.314Z,36.38
2018-08-30T04:36:05.268Z,36.38
2018-08-30T04:37:05.225Z,36.38
2018-08-30T04:38:05.181Z,36.47
2018-08-30T04:39:05.187Z,36.57
2018-08-30T04:40:05.092Z,36.57
2018-08-30T04:41:05.051Z,36.18
2018-08-30T04:42:05.005Z,36.66
2018-08-30T04:43:04.961Z,36.57
2018-08-30T04:44:04.916Z,36.66
2018-08-30T04:45:04.922Z,36.66
2018-08-30T04:46:04.830Z,36.66
2018-08-30T04:47:04.785Z,36.66
2018-08-30T04:48:04.740Z,36.76
2018-08-30T04:49:04.696Z,36.76
2018-08-30T04:50:04.686Z,36.76
2018-08-30T04:51:04.608Z,36.76
2018-08-30T04:52:04.564Z,36.57
2018-08-30T04:53:04.520Z,36.66
2018-08-30T04:54:04.476Z,36.66
2018-08-30T04:55:04.433Z,36.66
2018-08-30T04:56:04.388Z,36.57
2018-08-30T04:57:04.344Z,36.66
2018-08-30T04:58:04.300Z,36.47
2018-08-30T04:59:04.256Z,36.57
2018-08-30T05:00:04.215Z,36.57
2018-08-30T05:01:04.169Z,36.57
2018-08-30T05:02:04.124Z,36.47
2018-08-30T05:03:04.080Z,36.57
2018-08-30T05:04:04.037Z,36.57
2018-08-30T05:05:03.991Z,36.57
2018-08-30T05:06:03.949Z,36.38
2018-08-30T05:07:03.906Z,36.47
2018-08-30T05:08:03.859Z,36.38
2018-08-30T05:09:03.815Z,36.38
2018-08-30T05:10:03.786Z,36.38
2018-08-30T05:11:03.728Z,36.38
2018-08-30T05:12:03.683Z,36.86
2018-08-30T05:13:03.639Z,36.38
2018-08-30T05:14:03.596Z,36.38
2018-08-30T05:15:03.602Z,36.57
2018-08-30T05:16:03.507Z,36.47
2018-08-30T05:17:03.463Z,36.47
2018-08-30T05:18:03.419Z,36.76
2018-08-30T05:19:03.375Z,36.66
2018-08-30T05:20:03.331Z,36.76
2018-08-30T05:21:03.292Z,36.76
2018-08-30T05:22:03.243Z,36.86
2018-08-30T05:23:03.276Z,36.86
2018-08-30T05:24:03.155Z,37.05
2018-08-30T05:25:03.114Z,37.05
2018-08-30T05:26:03.068Z,36.66
2018-08-30T05:27:03.028Z,36.76
2018-08-30T05:28:02.978Z,36.76
2018-08-30T05:29:02.934Z,36.76
2018-08-30T05:30:02.891Z,36.76
2018-08-30T05:31:02.848Z,36.86
2018-08-30T05:32:02.803Z,37.15
2018-08-30T05:33:02.758Z,37.15
2018-08-30T05:34:02.715Z,37.15
2018-08-30T05:35:02.671Z,37.05
2018-08-30T05:36:02.627Z,37.15
2018-08-30T05:37:02.582Z,37.15
2018-08-30T05:38:02.539Z,36.96
2018-08-30T05:39:02.495Z,36.96
2018-08-30T05:40:02.450Z,36.96
2018-08-30T05:41:02.405Z,37.05
2018-08-30T05:42:02.361Z,37.44
2018-08-30T05:43:02.317Z,37.54
2018-08-30T05:44:02.273Z,37.34
2018-08-30T05:45:02.229Z,37.44
2018-08-30T05:46:02.186Z,37.44
2018-08-30T05:47:02.141Z,37.44
2018-08-30T05:48:02.098Z,37.15
2018-08-30T05:49:02.053Z,37.15
2018-08-30T05:50:02.009Z,37.15
2018-08-30T05:51:01.965Z,37.05
2018-08-30T05:52:01.925Z,37.05
2018-08-30T05:53:01.876Z,37.73
2018-08-30T05:54:01.833Z,37.05
2018-08-30T05:55:01.789Z,37.15
2018-08-30T05:56:01.743Z,37.17
2018-08-30T05:57:01.896Z,37.15
2018-08-30T05:58:01.656Z,37.34
2018-08-30T05:59:01.612Z,37.46
2018-08-30T06:00:01.567Z,37.63
2018-08-30T06:01:01.523Z,37.54
2018-08-30T06:03:01.435Z,37.34
2018-08-30T06:04:01.392Z,37.34
2018-08-30T06:05:01.348Z,37.46
2018-08-30T06:06:01.352Z,37.73
2018-08-30T06:07:01.258Z,37.65
2018-08-30T06:08:01.213Z,37.73
2018-08-30T06:09:01.169Z,37.54
2018-08-30T06:10:01.125Z,37.63
2018-08-30T06:11:01.082Z,37.44
2018-08-30T06:12:01.038Z,37.34
2018-08-30T06:13:01.006Z,37.55
2018-08-30T06:14:00.951Z,37.44
2018-08-30T06:15:00.904Z,37.85
2018-08-30T06:16:00.859Z,38.02
2018-08-30T06:17:00.816Z,38.79
2018-08-30T06:18:00.771Z,39.18
2018-08-30T06:19:00.728Z,39.84
2018-08-30T06:20:00.683Z,40.23
2018-08-30T06:21:00.638Z,40.71
2018-08-30T06:22:00.596Z,40.81
2018-08-30T06:23:00.551Z,41.09
2018-08-30T06:24:00.505Z,41.36
2018-08-30T06:25:00.461Z,41.29
2018-08-30T06:26:00.416Z,41.46
2018-08-30T06:27:00.373Z,41.66
2018-08-30T06:28:00.327Z,41.87
2018-08-30T06:29:00.284Z,42.33
2018-08-30T06:30:00.241Z,42.04
2018-08-30T06:31:00.196Z,42.52
2018-08-30T06:32:00.152Z,42.43
2018-08-30T06:33:00.162Z,42.24
2018-08-30T06:34:00.064Z,42.52
2018-08-30T06:35:00.020Z,42.82
2018-08-30T06:35:59.974Z,43.20
2018-08-30T06:36:59.931Z,43.78
2018-08-30T06:37:59.887Z,43.49
2018-08-30T06:38:59.845Z,43.30
2018-08-30T06:39:59.798Z,43.40
2018-08-30T06:40:59.753Z,43.68
2018-08-30T06:41:59.709Z,44.07
2018-08-30T06:42:59.666Z,43.78
2018-08-30T06:43:59.621Z,44.15
2018-08-30T06:44:59.577Z,44.36
2018-08-30T06:45:59.531Z,44.65
2018-08-30T06:46:59.489Z,44.07
2018-08-30T06:47:59.444Z,45.23
2018-08-30T06:48:59.494Z,44.84
2018-08-30T06:49:59.359Z,44.46
2018-08-30T06:50:59.312Z,44.94
2018-08-30T06:51:59.271Z,44.46
2018-08-30T06:52:59.223Z,44.84
2018-08-30T06:53:59.188Z,44.17
2018-08-30T06:54:59.134Z,44.94
2018-08-30T06:55:59.090Z,44.84
2018-08-30T06:56:59.046Z,44.65
2018-08-30T06:57:59.002Z,45.11
2018-08-30T06:58:58.957Z,45.14
2018-08-30T06:59:58.912Z,45.14
2018-08-30T07:00:58.870Z,45.42
2018-08-30T07:01:58.824Z,45.33
2018-08-30T07:02:58.780Z,45.52
2018-08-30T07:03:58.736Z,45.42
2018-08-30T07:04:58.691Z,45.81
2018-08-30T07:05:58.650Z,45.81
2018-08-30T07:06:58.652Z,45.72
2018-08-30T07:07:58.561Z,46.10
2018-08-30T07:08:58.520Z,46.10
2018-08-30T07:09:58.470Z,46.39
2018-08-30T07:10:58.430Z,46.39
2018-08-30T07:11:58.384Z,46.39
2018-08-30T07:12:58.337Z,46.58
2018-08-30T07:13:58.293Z,46.68
2018-08-30T07:14:58.297Z,46.78
2018-08-30T07:15:58.206Z,47.16
2018-08-30T07:16:58.167Z,47.16
2018-08-30T07:17:58.116Z,47.33
2018-08-30T07:18:58.072Z,47.55
2018-08-30T07:19:58.027Z,47.26
2018-08-30T07:20:58.039Z,47.72
2018-08-30T07:21:57.939Z,48.01
2018-08-30T07:22:57.895Z,48.59
2018-08-30T07:23:57.850Z,48.59
2018-08-30T07:24:57.806Z,48.79
2018-08-30T07:25:57.762Z,48.97
2018-08-30T07:26:57.717Z,49.37
2018-08-30T07:27:57.722Z,49.95
2018-08-30T07:28:57.632Z,49.65
2018-08-30T07:29:57.589Z,49.75
2018-08-30T07:30:57.545Z,50.23
2018-08-30T07:31:57.496Z,50.13
2018-08-30T07:32:57.452Z,50.23
2018-08-30T07:33:57.407Z,50.81
2018-08-30T07:34:57.533Z,50.71
2018-08-30T07:35:57.321Z,51.10
2018-08-30T07:37:57.229Z,51.39
2018-08-30T07:38:57.185Z,51.59
2018-08-30T07:39:57.143Z,51.78
2018-08-30T07:41:57.052Z,51.87
2018-08-30T07:42:57.008Z,52.36
2018-08-30T07:43:56.966Z,52.45
2018-08-30T07:44:56.925Z,52.55
2018-08-30T07:45:56.875Z,52.55
2018-08-30T07:46:56.831Z,53.03
2018-08-30T07:47:56.785Z,53.03
2018-08-30T07:48:56.741Z,53.33
2018-08-30T07:49:56.698Z,53.52
2018-08-30T07:50:56.714Z,53.91
2018-08-30T07:51:56.608Z,54.00
2018-08-30T07:52:56.564Z,54.19
2018-08-30T07:53:56.520Z,54.68
2018-08-30T07:54:56.477Z,55.16
2018-08-30T07:55:56.429Z,54.77
2018-08-30T07:56:56.386Z,55.07
2018-08-30T07:57:56.342Z,54.97
2018-08-30T07:58:56.298Z,55.16
2018-08-30T07:59:56.318Z,55.26
2018-08-30T08:00:56.209Z,55.35
2018-08-30T08:01:56.164Z,55.45
2018-08-30T08:02:56.120Z,55.55
2018-08-30T08:03:56.075Z,55.74
2018-08-30T08:04:56.039Z,56.03
2018-08-30T08:05:56.021Z,55.65
2018-08-30T08:06:55.942Z,55.65
2018-08-30T08:07:55.898Z,56.32
2018-08-30T08:08:55.853Z,55.83
2018-08-30T08:09:55.808Z,56.22
2018-08-30T08:10:55.767Z,56.22
2018-08-30T08:11:55.769Z,56.22
2018-08-30T08:12:55.675Z,56.61
2018-08-30T08:13:55.630Z,56.99
2018-08-30T08:14:55.586Z,57.09
2018-08-30T08:15:55.540Z,56.96
2018-08-30T08:16:55.497Z,57.29
2018-08-30T08:17:55.452Z,56.80
2018-08-30T08:18:55.412Z,57.19
2018-08-30T08:19:55.362Z,56.99
2018-08-30T08:20:55.319Z,57.09
2018-08-30T08:21:55.275Z,57.96
2018-08-30T08:22:55.230Z,57.87
2018-08-30T08:23:55.184Z,58.25
2018-08-30T08:24:55.141Z,57.74
2018-08-30T08:25:55.100Z,57.93
2018-08-30T08:26:55.052Z,58.03
2018-08-30T08:27:55.007Z,58.06
2018-08-30T08:28:54.963Z,58.22
2018-08-30T08:29:54.918Z,58.32
2018-08-30T08:30:54.880Z,58.35
2018-08-30T08:31:54.829Z,58.32
2018-08-30T08:32:54.784Z,58.64
2018-08-30T08:33:54.740Z,58.45
2018-08-30T08:34:54.696Z,58.80
2018-08-30T08:35:54.651Z,58.90
2018-08-30T08:36:54.607Z,59.02
2018-08-30T08:37:54.562Z,58.80
2018-08-30T08:38:54.520Z,58.73
2018-08-30T08:39:54.473Z,58.70
2018-08-30T08:40:54.428Z,59.12
2018-08-30T08:41:54.384Z,59.19
2018-08-30T08:42:54.347Z,59.12
2018-08-30T08:43:54.295Z,58.93
2018-08-30T08:44:54.250Z,59.58
2018-08-30T08:45:54.205Z,59.58
2018-08-30T08:46:54.162Z,59.67
2018-08-30T08:47:54.128Z,59.28
2018-08-30T08:48:54.072Z,59.70
2018-08-30T08:49:54.028Z,59.51
2018-08-30T08:50:53.983Z,59.60
2018-08-30T08:51:53.938Z,59.38
2018-08-30T08:52:53.893Z,59.38
2018-08-30T08:53:53.927Z,59.67
2018-08-30T08:54:53.805Z,59.67
2018-08-30T08:55:53.763Z,59.67
2018-08-30T08:56:53.745Z,59.48
2018-08-30T08:57:53.672Z,59.86
2018-08-30T08:58:53.638Z,60.16
2018-08-30T08:59:53.582Z,60.16
2018-08-30T09:00:53.538Z,59.58
2018-08-30T09:01:53.497Z,59.58
2018-08-30T09:02:53.462Z,60.25
2018-08-30T09:03:53.404Z,60.54
2018-08-30T09:04:53.359Z,60.25
2018-08-30T09:05:53.321Z,60.35
2018-08-30T09:06:53.307Z,60.35
2018-08-30T09:07:53.276Z,59.96
2018-08-30T09:08:53.181Z,60.35
2018-08-30T09:09:53.136Z,60.06
2018-08-30T09:10:53.092Z,60.35
2018-08-30T09:11:53.047Z,60.64
2018-08-30T09:12:53.002Z,60.64
2018-08-30T09:13:52.961Z,60.35
2018-08-30T09:14:52.919Z,60.25
2018-08-30T09:15:52.868Z,60.73
2018-08-30T09:16:52.827Z,60.16
2018-08-30T09:17:52.780Z,60.93
2018-08-30T09:18:52.739Z,60.64
2018-08-30T09:19:52.690Z,60.54
2018-08-30T09:20:52.646Z,60.83
2018-08-30T09:21:52.602Z,60.93
2018-08-30T09:22:52.557Z,60.73
2018-08-30T09:23:52.516Z,61.22
2018-08-30T09:24:52.467Z,61.31
2018-08-30T09:25:52.424Z,61.02
2018-08-30T09:26:52.474Z,61.22
2018-08-30T09:27:52.335Z,60.93
2018-08-30T09:28:52.289Z,61.02
2018-08-30T09:29:52.245Z,61.89
2018-08-30T09:30:52.260Z,61.80
2018-08-30T09:31:52.155Z,61.80
2018-08-30T09:32:52.114Z,61.89
2018-08-30T09:33:52.120Z,61.70
2018-08-30T09:34:52.022Z,62.08
2018-08-30T09:35:51.977Z,61.70
2018-08-30T09:36:51.933Z,62.18
2018-08-30T09:37:51.888Z,62.05
2018-08-30T09:38:51.843Z,61.89
2018-08-30T09:39:51.799Z,62.47
2018-08-30T09:40:51.754Z,62.57
2018-08-30T09:41:51.710Z,62.57
2018-08-30T09:42:51.665Z,61.99
2018-08-30T09:43:51.713Z,61.99
2018-08-30T09:44:51.576Z,62.18
2018-08-30T09:45:51.531Z,62.28
2018-08-30T09:46:51.486Z,62.76
2018-08-30T09:47:51.441Z,62.86
2018-08-30T09:48:51.397Z,62.66
2018-08-30T09:49:51.458Z,62.37
2018-08-30T09:50:51.311Z,62.37
2018-08-30T09:51:51.263Z,62.18
2018-08-30T09:52:51.221Z,62.47
2018-08-30T09:53:51.174Z,62.57
2018-08-30T09:54:51.128Z,61.99
2018-08-30T09:55:51.279Z,61.70
2018-08-30T09:56:51.200Z,62.08
2018-08-30T09:57:50.995Z,61.99
2018-08-30T09:58:50.983Z,61.80
2018-08-30T09:59:50.904Z,61.80
2018-08-30T10:00:50.966Z,62.08
2018-08-30T10:01:50.816Z,61.60
2018-08-30T10:02:50.772Z,61.80
2018-08-30T10:03:50.751Z,62.08
2018-08-30T10:04:50.706Z,61.80
2018-08-30T10:05:50.638Z,61.80
2018-08-30T10:06:50.593Z,61.99
2018-08-30T10:07:50.548Z,62.08
2018-08-30T10:08:50.503Z,62.08
2018-08-30T10:09:50.462Z,61.89
2018-08-30T10:10:50.414Z,61.80
2018-08-30T10:11:50.371Z,62.63
2018-08-30T10:12:50.324Z,62.15
2018-08-30T10:13:50.280Z,62.54
2018-08-30T10:14:50.234Z,62.54
2018-08-30T10:15:50.235Z,62.95
2018-08-30T10:16:50.145Z,62.92
2018-08-30T10:17:50.101Z,63.12
2018-08-30T10:18:50.056Z,63.21
2018-08-30T10:19:50.011Z,63.12
2018-08-30T10:20:49.967Z,63.21
2018-08-30T10:21:49.922Z,63.31
2018-08-30T10:22:49.880Z,63.12
2018-08-30T10:23:49.833Z,63.40
2018-08-30T10:24:49.787Z,63.70
2018-08-30T10:25:49.743Z,63.50
2018-08-30T10:26:49.697Z,63.79
2018-08-30T10:27:49.653Z,63.89
2018-08-30T10:28:49.609Z,64.18
2018-08-30T10:29:49.564Z,64.18
2018-08-30T10:30:49.519Z,64.95
2018-08-30T10:31:49.474Z,64.66
2018-08-30T10:32:49.429Z,64.66
2018-08-30T10:33:49.384Z,64.47
2018-08-30T10:34:49.364Z,64.86
2018-08-30T10:35:49.294Z,64.76
2018-08-30T10:36:49.253Z,64.66
2018-08-30T10:37:49.205Z,64.76
2018-08-30T10:38:49.163Z,65.05
2018-08-30T10:39:49.115Z,64.76
2018-08-30T10:40:49.070Z,64.76
2018-08-30T10:41:49.027Z,64.86
2018-08-30T10:42:49.040Z,65.05
2018-08-30T10:43:48.937Z,64.66
2018-08-30T10:44:48.892Z,63.89
2018-08-30T10:45:48.848Z,64.11
2018-08-30T10:46:48.803Z,64.01
2018-08-30T10:47:48.757Z,63.73
2018-08-30T10:48:48.713Z,63.53
2018-08-30T10:49:48.706Z,63.24
2018-08-30T10:50:48.624Z,62.89
2018-08-30T10:51:48.579Z,63.28
2018-08-30T10:52:48.535Z,62.79
2018-08-30T10:53:48.488Z,62.89
2018-08-30T10:54:48.446Z,62.60
2018-08-30T10:55:48.400Z,62.60
2018-08-30T10:56:48.356Z,62.40
2018-08-30T10:57:48.311Z,62.15
2018-08-30T10:58:48.267Z,62.63
2018-08-30T10:59:48.222Z,62.44
2018-08-30T11:00:48.178Z,62.15
2018-08-30T11:01:48.141Z,61.95
2018-08-30T11:02:48.089Z,62.15
2018-08-30T11:03:48.073Z,61.95
2018-08-30T11:04:48.000Z,61.95
2018-08-30T11:05:47.956Z,61.86
2018-08-30T11:06:47.915Z,61.79
2018-08-30T11:07:47.866Z,61.98
2018-08-30T11:08:47.825Z,62.08
2018-08-30T11:09:47.806Z,62.08
2018-08-30T11:10:47.734Z,61.98
2018-08-30T11:11:47.690Z,61.79
2018-08-30T11:12:47.665Z,61.60
2018-08-30T11:13:47.602Z,61.50
2018-08-30T11:14:47.609Z,61.30
2018-08-30T11:15:47.513Z,60.92
2018-08-30T11:16:47.469Z,61.21
2018-08-30T11:17:47.426Z,60.92
2018-08-30T11:18:47.381Z,60.63
2018-08-30T11:19:47.337Z,60.63
2018-08-30T11:20:47.294Z,61.11
2018-08-30T11:21:47.249Z,60.82
2018-08-30T11:22:47.205Z,60.72
2018-08-30T11:23:47.161Z,60.34
2018-08-30T11:24:47.116Z,60.82
2018-08-30T11:25:47.071Z,60.34
2018-08-30T11:26:47.028Z,60.44
2018-08-30T11:27:46.983Z,60.44
2018-08-30T11:28:46.939Z,59.76
2018-08-30T11:29:46.895Z,59.66
2018-08-30T11:30:46.850Z,60.05
2018-08-30T11:31:46.807Z,60.24
2018-08-30T11:32:46.763Z,59.66
2018-08-30T11:33:46.719Z,59.76
2018-08-30T11:34:46.676Z,59.95
2018-08-30T11:35:46.630Z,59.38
2018-08-30T11:36:46.586Z,59.56
2018-08-30T11:37:46.619Z,59.47
2018-08-30T11:38:46.499Z,59.47
2018-08-30T11:39:46.457Z,58.98
2018-08-30T11:40:46.410Z,58.89
2018-08-30T11:41:46.483Z,59.28
2018-08-30T11:42:46.323Z,59.08
2018-08-30T11:43:46.278Z,59.08
2018-08-30T11:44:46.234Z,58.89
2018-08-30T11:45:46.197Z,58.70
2018-08-30T11:46:46.146Z,58.60
2018-08-30T11:47:46.102Z,58.31
2018-08-30T11:48:46.058Z,58.31
2018-08-30T11:49:46.018Z,58.31
2018-08-30T11:50:45.973Z,58.12
2018-08-30T11:51:45.925Z,58.02
2018-08-30T11:52:45.923Z,57.73
2018-08-30T11:53:45.837Z,57.82
2018-08-30T11:54:45.794Z,58.21
2018-08-30T11:55:45.749Z,57.54
2018-08-30T11:56:45.705Z,57.92
2018-08-30T11:57:45.662Z,57.66
2018-08-30T11:58:45.618Z,57.18
2018-08-30T11:59:45.573Z,57.18
2018-08-30T12:00:45.622Z,57.28
2018-08-30T12:01:45.486Z,57.18
2018-08-30T12:02:45.442Z,57.08
2018-08-30T12:03:45.404Z,56.95
2018-08-30T12:04:45.354Z,56.88
2018-08-30T12:05:45.310Z,56.76
2018-08-30T12:06:45.281Z,56.79
2018-08-30T12:07:45.271Z,56.40
2018-08-30T12:08:45.177Z,56.60
2018-08-30T12:09:45.135Z,56.18
2018-08-30T12:10:45.119Z,56.18
2018-08-30T12:11:45.045Z,56.21
2018-08-30T12:12:45.001Z,56.02
2018-08-30T12:13:44.957Z,56.11
2018-08-30T12:14:44.914Z,56.21
2018-08-30T12:15:44.869Z,56.11
2018-08-30T12:16:44.825Z,56.21
2018-08-30T12:17:44.781Z,56.02
2018-08-30T12:18:44.796Z,56.21
2018-08-30T12:19:44.700Z,56.40
2018-08-30T12:20:44.763Z,56.11
2018-08-30T12:21:44.605Z,56.11
2018-08-30T12:22:44.560Z,56.11
2018-08-30T12:23:44.519Z,55.82
2018-08-30T12:24:44.485Z,55.53
2018-08-30T12:25:44.429Z,55.53
2018-08-30T12:26:44.384Z,55.43
2018-08-30T12:27:44.341Z,55.43
2018-08-30T12:28:44.363Z,55.53
2018-08-30T12:29:44.254Z,55.53
2018-08-30T12:30:44.258Z,55.53
2018-08-30T12:31:44.167Z,54.85
2018-08-30T12:32:44.136Z,55.34
2018-08-30T12:33:44.133Z,55.05
2018-08-30T12:34:44.061Z,55.34
2018-08-30T12:35:44.459Z,55.73
2018-08-30T12:36:43.954Z,55.63
2018-08-30T12:37:43.903Z,56.37
2018-08-30T12:38:43.909Z,56.18
2018-08-30T12:39:43.938Z,56.28
2018-08-30T12:40:43.826Z,55.89
2018-08-30T12:41:43.747Z,56.09
2018-08-30T12:42:43.744Z,55.89
2018-08-30T12:43:43.690Z,56.18
2018-08-30T12:44:43.594Z,56.67
2018-08-30T12:45:43.580Z,56.47
2018-08-30T12:46:43.582Z,56.86
2018-08-30T12:47:43.486Z,56.95
2018-08-30T12:48:43.418Z,57.24
2018-08-30T12:49:43.434Z,57.05
2018-08-30T12:50:43.450Z,57.03
2018-08-30T12:51:43.523Z,57.05
2018-08-30T12:52:43.255Z,56.93
2018-08-30T12:53:43.202Z,56.86
2018-08-30T12:54:43.309Z,56.83
2018-08-30T12:55:43.279Z,57.21
2018-08-30T12:56:43.224Z,57.12
2018-08-30T12:57:43.154Z,57.34
2018-08-30T12:58:43.151Z,57.21
2018-08-30T12:59:43.118Z,57.51